Time;durP1;ratioP1;P1;durP2;ratioP2;P2;SDS_P1;SDS_P2;PMS_P1;PMS_P2;Temp;Humidity;BMP_temperature;BMP_pressure;BME280_temperature;BME280_humidity;BME280_pressure;Samples;Min_cycle;Max_cycle;Signal;HPM_P1;HPM_P2
2020/12/17 14:02:43;;;;;;;583.30;538.97;;;;;;;;;;5056450;28;20688;-66
2020/12/17 14:05:09;;;;;;;507.20;470.03;;;;;;;;;;5055814;28;20198;-68
2020/12/17 14:07:36;;;;;;;465.57;430.63;;;;;;;;;;5043789;28;20186;-68
2020/12/17 14:10:03;;;;;;;428.93;401.10;;;;;;;;;;5040941;27;20179;-67
2020/12/17 14:12:29;;;;;;;543.97;505.07;;;;;;;;;;5030286;28;20180;-65
2020/12/17 14:14:56;;;;;;;487.57;450.40;;;;;;;;;;5028597;28;20245;-65
2020/12/17 14:17:23;;;;;;;398.80;370.10;;;;;;;;;;5035954;28;20183;-69
2020/12/17 14:19:49;;;;;;;366.47;342.43;;;;;;;;;;5029843;28;20214;-68
2020/12/17 14:22:16;;;;;;;495.30;456.43;;;;;;;;;;5029549;28;21158;-65
2020/12/17 14:24:42;;;;;;;421.77;394.77;;;;;;;;;;5030082;28;20194;-67
2020/12/17 14:27:09;;;;;;;411.53;383.20;;;;;;;;;;5029268;28;20195;-65
2020/12/17 14:29:35;;;;;;;548.20;502.67;;;;;;;;;;5029802;28;20905;-67
2020/12/17 14:32:03;;;;;;;448.30;412.87;;;;;;;;;;5033396;28;20180;-66
2020/12/17 14:34:30;;;;;;;516.93;474.90;;;;;;;;;;5035110;28;20184;-66
2020/12/17 14:36:59;;;;;;;451.90;418.90;;;;;;;;;;5036132;28;20200;-65
2020/12/17 14:39:26;;;;;;;492.97;461.43;;;;;;;;;;5034790;28;20195;-66
2020/12/17 14:41:56;;;;;;;518.70;478.57;;;;;;;;;;5031875;28;20219;-65
2020/12/17 14:44:23;;;;;;;480.30;445.83;;;;;;;;;;5030039;28;20183;-70
2020/12/17 14:46:50;;;;;;;615.87;570.90;;;;;;;;;;5035218;28;20183;-68
2020/12/17 14:49:17;;;;;;;636.67;589.93;;;;;;;;;;5036195;28;20186;-64
2020/12/17 14:51:44;;;;;;;616.20;574.40;;;;;;;;;;5039588;28;20179;-65
2020/12/17 14:54:10;;;;;;;579.70;537.03;;;;;;;;;;5038661;28;20179;-68
2020/12/17 14:56:38;;;;;;;580.40;536.97;;;;;;;;;;5036070;28;20212;-66
2020/12/17 14:59:05;;;;;;;566.47;522.00;;;;;;;;;;5036668;28;20191;-66
2020/12/17 15:01:32;;;;;;;611.67;564.33;;;;;;;;;;5034594;28;20235;-67
2020/12/17 15:03:59;;;;;;;720.67;659.33;;;;;;;;;;5035994;28;20645;-66
2020/12/17 15:06:25;;;;;;;643.83;596.33;;;;;;;;;;5034941;28;20687;-67
2020/12/17 15:08:52;;;;;;;587.77;544.27;;;;;;;;;;5036978;28;20180;-67
2020/12/17 15:11:23;;;;;;;723.40;664.90;;;;;;;;;;5035370;28;20661;-68
2020/12/17 15:13:50;;;;;;;579.20;534.30;;;;;;;;;;5020304;28;20307;-65
2020/12/17 15:16:16;;;;;;;740.90;679.17;;;;;;;;;;5021878;28;20178;-65
2020/12/17 15:18:43;;;;;;;738.13;675.33;;;;;;;;;;5022855;28;20176;-68
2020/12/17 15:21:11;;;;;;;754.07;690.33;;;;;;;;;;5023324;28;20874;-68
2020/12/17 15:23:38;;;;;;;784.33;720.73;;;;;;;;;;5023121;28;20191;-69
2020/12/17 15:26:04;;;;;;;627.23;581.17;;;;;;;;;;5022870;28;20176;-68
2020/12/17 15:28:31;;;;;;;814.03;742.60;;;;;;;;;;5023442;28;20551;-67
2020/12/17 15:30:58;;;;;;;601.77;554.83;;;;;;;;;;5022783;28;20188;-70
2020/12/17 15:33:25;;;;;;;736.67;677.07;;;;;;;;;;5026629;28;20261;-68
2020/12/17 15:35:51;;;;;;;646.97;596.67;;;;;;;;;;5024747;28;20188;-67
2020/12/17 15:38:18;;;;;;;629.33;583.00;;;;;;;;;;5023947;28;20185;-69
2020/12/17 15:40:45;;;;;;;574.07;534.03;;;;;;;;;;5022864;28;20263;-67
2020/12/17 15:43:11;;;;;;;613.93;566.27;;;;;;;;;;5023637;28;20275;-64
2020/12/17 15:45:39;;;;;;;726.03;667.10;;;;;;;;;;5025139;28;20268;-67
2020/12/17 15:48:07;;;;;;;641.97;592.07;;;;;;;;;;5022044;28;20690;-68
2020/12/17 15:50:34;;;;;;;661.10;607.13;;;;;;;;;;5022519;28;20250;-67
2020/12/17 15:53:01;;;;;;;762.93;698.37;;;;;;;;;;5021890;28;20223;-66
2020/12/17 15:55:27;;;;;;;735.40;675.43;;;;;;;;;;5022612;28;20281;-65
2020/12/17 15:57:54;;;;;;;666.87;614.10;;;;;;;;;;5020495;28;20195;-66
2020/12/17 16:00:21;;;;;;;790.03;723.90;;;;;;;;;;5021700;28;20187;-66
2020/12/17 16:02:48;;;;;;;759.07;697.37;;;;;;;;;;5022079;28;20289;-67
2020/12/17 16:05:15;;;;;;;649.90;602.33;;;;;;;;;;5023206;28;20184;-67
2020/12/17 16:07:41;;;;;;;629.97;584.20;;;;;;;;;;5024244;28;20207;-68
2020/12/17 16:10:08;;;;;;;700.30;647.17;;;;;;;;;;5022357;28;20960;-68
2020/12/17 16:12:35;;;;;;;638.17;595.27;;;;;;;;;;5021943;28;20275;-67
2020/12/17 16:15:02;;;;;;;555.20;516.00;;;;;;;;;;5022308;28;20181;-66
2020/12/17 16:17:29;;;;;;;604.03;558.03;;;;;;;;;;5023010;28;20239;-66
2020/12/17 16:19:55;;;;;;;639.27;592.90;;;;;;;;;;5023581;28;20232;-67
2020/12/17 16:22:22;;;;;;;625.20;576.53;;;;;;;;;;5020511;28;20950;-67
2020/12/17 16:24:49;;;;;;;670.23;618.90;;;;;;;;;;5019716;28;20231;-68
2020/12/17 16:27:16;;;;;;;662.90;612.37;;;;;;;;;;5018566;28;20235;-65
2020/12/17 16:29:42;;;;;;;699.37;643.93;;;;;;;;;;5020941;28;20247;-64
2020/12/17 16:32:10;;;;;;;767.80;707.10;;;;;;;;;;5020010;28;20263;-64
2020/12/17 16:34:40;;;;;;;857.43;775.43;;;;;;;;;;5021325;28;20495;-66
2020/12/17 16:37:07;;;;;;;837.67;763.17;;;;;;;;;;5020326;28;20211;-64
2020/12/17 16:39:34;;;;;;;710.03;651.43;;;;;;;;;;5018481;28;20187;-66
2020/12/17 16:42:04;;;;;;;789.87;724.27;;;;;;;;;;5017503;28;20226;-67
2020/12/17 16:44:30;;;;;;;702.10;649.47;;;;;;;;;;5016447;28;20211;-64
2020/12/17 16:46:57;;;;;;;747.53;686.40;;;;;;;;;;5019528;28;20184;-64
2020/12/17 16:49:23;;;;;;;796.70;732.87;;;;;;;;;;5019914;28;20521;-67
2020/12/17 16:51:53;;;;;;;850.07;783.53;;;;;;;;;;5021692;28;20216;-64
2020/12/17 16:54:24;;;;;;;664.50;615.00;;;;;;;;;;5021226;28;20179;-65
2020/12/17 16:56:54;;;;;;;659.90;608.83;;;;;;;;;;5018302;28;20176;-67
2020/12/17 16:59:21;;;;;;;770.13;708.77;;;;;;;;;;5022263;28;20282;-67
2020/12/17 17:01:47;;;;;;;909.67;829.33;;;;;;;;;;5021443;28;20227;-66
2020/12/17 17:04:14;;;;;;;723.07;662.97;;;;;;;;;;5022483;28;20219;-67
2020/12/17 17:06:41;;;;;;;792.83;731.13;;;;;;;;;;5022263;28;20203;-67
2020/12/17 17:09:07;;;;;;;654.23;605.77;;;;;;;;;;5024568;28;20208;-66
2020/12/17 17:11:34;;;;;;;770.97;706.07;;;;;;;;;;5020180;28;20191;-66
2020/12/17 17:14:01;;;;;;;890.87;815.20;;;;;;;;;;5019842;28;20192;-67
2020/12/17 17:16:27;;;;;;;783.97;718.33;;;;;;;;;;5020761;28;20185;-65
2020/12/17 17:18:54;;;;;;;811.17;745.50;;;;;;;;;;5019672;28;20185;-67
2020/12/17 17:21:21;;;;;;;798.77;732.70;;;;;;;;;;5021196;28;20303;-65
2020/12/17 17:23:47;;;;;;;833.13;764.00;;;;;;;;;;5020209;28;20597;-67
2020/12/17 17:26:14;;;;;;;947.07;855.37;;;;;;;;;;5015817;28;20180;-67
2020/12/17 17:28:40;;;;;;;827.83;760.27;;;;;;;;;;5020157;28;20551;-66
2020/12/17 17:31:12;;;;;;;840.77;776.97;;;;;;;;;;5019738;28;20192;-67
2020/12/17 17:33:41;;;;;;;897.50;821.60;;;;;;;;;;5019567;28;20213;-67
2020/12/17 17:36:08;;;;;;;803.33;737.43;;;;;;;;;;5023841;28;20177;-66
2020/12/17 17:38:35;;;;;;;904.77;827.73;;;;;;;;;;5019828;28;20179;-66
2020/12/17 17:41:02;;;;;;;852.10;780.73;;;;;;;;;;5021169;28;20259;-65
2020/12/17 17:43:29;;;;;;;922.83;842.27;;;;;;;;;;5020383;28;20773;-66
2020/12/17 17:45:56;;;;;;;835.50;762.70;;;;;;;;;;5020266;28;20536;-68
2020/12/17 17:48:22;;;;;;;901.03;825.10;;;;;;;;;;5019278;28;20526;-67
2020/12/17 17:50:49;;;;;;;886.10;815.53;;;;;;;;;;5018871;28;20735;-65
2020/12/17 17:53:16;;;;;;;914.80;835.63;;;;;;;;;;5019295;28;20176;-65
2020/12/17 17:55:42;;;;;;;848.40;783.07;;;;;;;;;;5018677;28;20176;-64
2020/12/17 17:58:09;;;;;;;821.63;758.83;;;;;;;;;;5018992;28;20173;-65
2020/12/17 18:00:35;;;;;;;865.50;795.50;;;;;;;;;;5019234;28;20670;-65
2020/12/17 18:03:02;;;;;;;786.43;728.40;;;;;;;;;;5018857;28;20189;-64
2020/12/17 18:05:28;;;;;;;793.97;727.17;;;;;;;;;;5018434;28;20183;-67
2020/12/17 18:07:55;;;;;;;758.87;695.77;;;;;;;;;;5017664;28;20242;-64
2020/12/17 18:10:22;;;;;;;737.37;678.33;;;;;;;;;;5018992;28;20199;-64
2020/12/17 18:12:48;;;;;;;871.67;801.03;;;;;;;;;;5020117;28;20173;-67
2020/12/17 18:15:15;;;;;;;842.30;773.03;;;;;;;;;;5021280;28;20181;-64
2020/12/17 18:17:41;;;;;;;897.27;815.97;;;;;;;;;;5019520;28;20212;-64
2020/12/17 18:20:08;;;;;;;810.87;749.80;;;;;;;;;;5019619;28;20184;-66
2020/12/17 18:22:35;;;;;;;805.57;744.60;;;;;;;;;;5017942;28;20908;-68
2020/12/17 18:25:01;;;;;;;851.77;783.83;;;;;;;;;;5017512;28;20180;-66
2020/12/17 18:27:28;;;;;;;843.97;776.17;;;;;;;;;;5016624;28;20535;-66
2020/12/17 18:29:56;;;;;;;752.53;695.70;;;;;;;;;;5019571;28;20183;-65
2020/12/17 18:32:26;;;;;;;819.80;750.00;;;;;;;;;;5019630;28;20177;-66
2020/12/17 18:34:53;;;;;;;782.17;716.97;;;;;;;;;;5017132;28;20177;-64
2020/12/17 18:37:20;;;;;;;859.83;787.83;;;;;;;;;;5017357;28;20203;-64
2020/12/17 18:39:47;;;;;;;879.87;804.33;;;;;;;;;;5017131;28;20184;-64
2020/12/17 18:42:14;;;;;;;823.97;758.93;;;;;;;;;;5018635;28;20212;-67
2020/12/17 18:44:40;;;;;;;910.43;829.30;;;;;;;;;;5020405;28;20176;-65
2020/12/17 18:47:10;;;;;;;904.47;825.27;;;;;;;;;;5019841;28;20192;-65
2020/12/17 18:49:40;;;;;;;842.87;775.30;;;;;;;;;;5023079;28;20192;-63
2020/12/17 18:52:12;;;;;;;881.20;810.27;;;;;;;;;;5020155;28;20216;-66
2020/12/17 18:54:40;;;;;;;894.40;819.57;;;;;;;;;;5017609;28;20187;-67
2020/12/17 18:57:07;;;;;;;868.10;794.13;;;;;;;;;;5016525;28;20176;-68
2020/12/17 18:59:33;;;;;;;861.77;794.00;;;;;;;;;;5021477;28;20212;-70
2020/12/17 19:02:00;;;;;;;881.17;807.63;;;;;;;;;;5019921;28;20289;-68
2020/12/17 19:04:27;;;;;;;895.97;824.07;;;;;;;;;;5021256;28;20269;-68
2020/12/17 19:06:53;;;;;;;869.13;798.47;;;;;;;;;;5019688;28;20180;-70
2020/12/17 19:09:20;;;;;;;852.63;786.83;;;;;;;;;;5021267;28;20196;-67
2020/12/17 19:11:47;;;;;;;903.27;822.50;;;;;;;;;;5023417;28;20697;-69
2020/12/17 19:14:14;;;;;;;922.90;835.13;;;;;;;;;;5017746;28;20724;-69
2020/12/17 19:16:41;;;;;;;928.23;844.20;;;;;;;;;;5020735;28;20196;-67
2020/12/17 19:19:08;;;;;;;908.27;828.60;;;;;;;;;;5020437;28;20191;-66
2020/12/17 19:21:35;;;;;;;833.87;766.30;;;;;;;;;;5018762;28;20372;-67
2020/12/17 19:24:02;;;;;;;838.73;770.73;;;;;;;;;;5021654;28;20170;-66
2020/12/17 19:26:36;;;;;;;852.03;779.83;;;;;;;;;;5021630;28;20678;-67
2020/12/17 19:29:03;;;;;;;935.80;851.77;;;;;;;;;;5019931;28;20176;-67
2020/12/17 19:31:32;;;;;;;877.27;806.30;;;;;;;;;;5021605;28;20639;-66
2020/12/17 19:33:58;;;;;;;915.43;837.30;;;;;;;;;;5020116;28;20195;-68
2020/12/17 19:36:25;;;;;;;959.97;876.73;;;;;;;;;;5019757;28;20192;-67
2020/12/17 19:38:52;;;;;;;943.47;857.37;;;;;;;;;;5020861;28;20831;-67
2020/12/17 19:41:20;;;;;;;932.93;855.73;;;;;;;;;;5019880;28;20274;-66
2020/12/17 19:43:47;;;;;;;891.83;819.07;;;;;;;;;;5021986;28;20184;-65
2020/12/17 19:46:14;;;;;;;902.53;829.67;;;;;;;;;;5018880;28;20206;-69
2020/12/17 19:48:41;;;;;;;925.87;842.27;;;;;;;;;;5017140;28;20234;-64
2020/12/17 19:51:07;;;;;;;921.73;839.53;;;;;;;;;;5018717;28;20704;-65
2020/12/17 19:53:34;;;;;;;945.27;866.30;;;;;;;;;;5018819;28;20814;-68
2020/12/17 19:56:02;;;;;;;925.50;844.90;;;;;;;;;;5020132;28;20207;-64
2020/12/17 19:58:28;;;;;;;908.70;827.13;;;;;;;;;;5019054;28;20294;-68
2020/12/17 20:00:55;;;;;;;992.37;902.23;;;;;;;;;;5019476;28;20239;-67
2020/12/17 20:03:22;;;;;;;1008.93;913.40;;;;;;;;;;5018921;28;20185;-65
2020/12/17 20:05:53;;;;;;;890.80;816.77;;;;;;;;;;5018717;28;20219;-68
2020/12/17 20:08:21;;;;;;;936.90;857.97;;;;;;;;;;5020185;28;20271;-64
2020/12/17 20:10:48;;;;;;;926.20;840.57;;;;;;;;;;5020649;28;20415;-67
2020/12/17 20:13:18;;;;;;;922.70;839.67;;;;;;;;;;5022551;28;20185;-66
2020/12/17 20:15:45;;;;;;;905.07;830.73;;;;;;;;;;5021321;28;20188;-67
2020/12/17 20:18:13;;;;;;;966.33;878.73;;;;;;;;;;5020901;28;20184;-65
2020/12/17 20:20:41;;;;;;;893.47;815.57;;;;;;;;;;5020294;28;20272;-62
2020/12/17 20:23:07;;;;;;;1015.37;916.97;;;;;;;;;;5018653;28;20202;-67
2020/12/17 20:25:34;;;;;;;880.03;806.23;;;;;;;;;;5020926;28;20838;-68
2020/12/17 20:28:01;;;;;;;982.50;885.17;;;;;;;;;;5020384;28;20271;-64
2020/12/17 20:30:28;;;;;;;914.80;834.07;;;;;;;;;;5023855;28;20188;-66
2020/12/17 20:32:54;;;;;;;917.83;834.47;;;;;;;;;;5017931;28;20250;-66
2020/12/17 20:35:21;;;;;;;930.60;851.37;;;;;;;;;;5019960;28;20187;-64
2020/12/17 20:37:48;;;;;;;908.30;826.83;;;;;;;;;;5020204;28;20182;-66
2020/12/17 20:40:14;;;;;;;895.00;818.87;;;;;;;;;;5020376;28;20181;-66
2020/12/17 20:42:41;;;;;;;885.93;811.13;;;;;;;;;;5017294;28;20232;-65
2020/12/17 20:45:08;;;;;;;962.10;876.00;;;;;;;;;;5019893;28;20187;-66
2020/12/17 20:47:35;;;;;;;905.97;819.40;;;;;;;;;;5020711;28;20177;-69
2020/12/17 20:50:04;;;;;;;1012.00;917.30;;;;;;;;;;5020359;28;20195;-67
2020/12/17 20:52:31;;;;;;;931.20;850.10;;;;;;;;;;5020184;28;20195;-65
2020/12/17 20:54:59;;;;;;;917.10;834.70;;;;;;;;;;5019493;28;20246;-64
2020/12/17 20:57:26;;;;;;;909.00;826.90;;;;;;;;;;5017691;28;20180;-64
2020/12/17 20:59:53;;;;;;;874.77;796.27;;;;;;;;;;5017544;28;20184;-65
2020/12/17 21:02:20;;;;;;;1026.27;928.63;;;;;;;;;;5018154;28;20355;-64
2020/12/17 21:04:49;;;;;;;966.87;873.83;;;;;;;;;;5019240;28;20547;-64
2020/12/17 21:07:16;;;;;;;865.63;793.83;;;;;;;;;;5018098;28;20710;-64
2020/12/17 21:09:43;;;;;;;884.67;807.47;;;;;;;;;;5015446;28;20229;-65
2020/12/17 21:12:10;;;;;;;1012.67;918.80;;;;;;;;;;5017349;28;20181;-64
2020/12/17 21:14:36;;;;;;;971.30;878.83;;;;;;;;;;5016834;28;20184;-64
2020/12/17 21:17:03;;;;;;;946.17;857.90;;;;;;;;;;5017715;28;20475;-66
2020/12/17 21:19:31;;;;;;;882.40;804.03;;;;;;;;;;5018059;28;20905;-64
2020/12/17 21:21:57;;;;;;;870.67;794.93;;;;;;;;;;5020272;28;20713;-64
2020/12/17 21:24:24;;;;;;;946.07;852.07;;;;;;;;;;5019632;28;20184;-68
2020/12/17 21:26:51;;;;;;;1060.47;956.50;;;;;;;;;;5017102;28;20257;-64
2020/12/17 21:29:18;;;;;;;788.97;728.07;;;;;;;;;;5018695;28;20184;-65
2020/12/17 21:31:52;;;;;;;911.10;821.73;;;;;;;;;;5018023;28;20181;-67
2020/12/17 21:34:20;;;;;;;772.47;706.80;;;;;;;;;;5018326;28;20183;-67
2020/12/17 21:36:48;;;;;;;845.13;763.73;;;;;;;;;;5018734;28;20269;-66
2020/12/17 21:39:15;;;;;;;797.90;723.23;;;;;;;;;;5020047;28;20180;-65
2020/12/17 21:41:42;;;;;;;778.87;707.93;;;;;;;;;;5017831;28;20226;-67
2020/12/17 21:44:08;;;;;;;791.50;721.63;;;;;;;;;;5019846;28;20186;-66
2020/12/17 21:46:37;;;;;;;816.43;739.40;;;;;;;;;;5018566;28;20930;-64
2020/12/17 21:49:09;;;;;;;820.50;741.60;;;;;;;;;;5019764;28;20210;-65
2020/12/17 21:51:39;;;;;;;823.03;750.03;;;;;;;;;;5017964;28;20203;-63
2020/12/17 21:54:05;;;;;;;672.07;614.60;;;;;;;;;;5020395;28;20183;-65
2020/12/17 21:56:32;;;;;;;756.63;694.23;;;;;;;;;;5020280;28;20194;-64
2020/12/17 21:58:59;;;;;;;802.23;728.23;;;;;;;;;;5018639;28;20184;-66
2020/12/17 22:01:26;;;;;;;559.23;522.53;;;;;;;;;;5017760;28;20330;-64
2020/12/17 22:03:52;;;;;;;652.00;597.27;;;;;;;;;;5019054;28;20218;-64
2020/12/17 22:06:19;;;;;;;830.70;757.63;;;;;;;;;;5017309;28;20245;-65
2020/12/17 22:08:46;;;;;;;782.63;713.60;;;;;;;;;;5017728;28;20913;-64
2020/12/17 22:11:13;;;;;;;667.10;620.57;;;;;;;;;;5019982;28;20180;-64
2020/12/17 22:13:39;;;;;;;700.90;647.90;;;;;;;;;;5019723;28;20282;-65
2020/12/17 22:16:06;;;;;;;721.10;664.97;;;;;;;;;;5019971;28;20187;-64
2020/12/17 22:18:33;;;;;;;522.47;490.80;;;;;;;;;;5018723;28;20199;-65
2020/12/17 22:20:59;;;;;;;585.80;547.13;;;;;;;;;;5019276;28;20225;-65
2020/12/17 22:23:27;;;;;;;669.30;618.83;;;;;;;;;;5020623;28;20191;-65
2020/12/17 22:25:54;;;;;;;781.07;718.80;;;;;;;;;;5022668;28;20187;-66
2020/12/17 22:28:21;;;;;;;838.17;769.43;;;;;;;;;;5022440;28;20364;-63
2020/12/17 22:30:49;;;;;;;810.73;747.80;;;;;;;;;;5021580;28;20214;-64
2020/12/17 22:33:16;;;;;;;770.23;710.47;;;;;;;;;;5021830;28;20901;-65
2020/12/17 22:35:43;;;;;;;741.70;687.53;;;;;;;;;;5022297;28;20842;-64
2020/12/17 22:38:10;;;;;;;803.37;742.27;;;;;;;;;;5021041;28;20214;-64
2020/12/17 22:40:36;;;;;;;804.53;743.47;;;;;;;;;;5022931;28;20297;-64
2020/12/17 22:43:03;;;;;;;748.57;695.90;;;;;;;;;;5021894;28;20367;-65
2020/12/17 22:45:30;;;;;;;730.13;678.57;;;;;;;;;;5021105;28;20195;-64
2020/12/17 22:47:57;;;;;;;850.37;781.90;;;;;;;;;;5021226;28;20839;-64
2020/12/17 22:50:26;;;;;;;905.80;825.27;;;;;;;;;;5022806;28;20360;-66
2020/12/17 22:52:53;;;;;;;844.37;778.57;;;;;;;;;;5022437;28;20187;-64
2020/12/17 22:55:19;;;;;;;816.10;751.37;;;;;;;;;;5020680;28;20236;-65
2020/12/17 22:57:46;;;;;;;824.50;762.03;;;;;;;;;;5021727;28;20633;-65
2020/12/17 23:00:15;;;;;;;886.57;804.63;;;;;;;;;;5020555;28;20194;-64
2020/12/17 23:02:42;;;;;;;840.43;770.73;;;;;;;;;;5022995;28;20238;-65
2020/12/17 23:05:14;;;;;;;842.93;775.23;;;;;;;;;;5021895;28;20187;-67
2020/12/17 23:07:41;;;;;;;833.53;763.23;;;;;;;;;;5022962;28;20210;-64
2020/12/17 23:10:08;;;;;;;813.63;750.00;;;;;;;;;;5019313;28;20290;-66
2020/12/17 23:12:35;;;;;;;758.83;702.13;;;;;;;;;;5019174;28;20195;-65
2020/12/17 23:15:01;;;;;;;779.83;725.10;;;;;;;;;;5019174;28;20194;-64
2020/12/17 23:17:28;;;;;;;811.10;744.00;;;;;;;;;;5021281;28;20203;-65
2020/12/17 23:19:56;;;;;;;698.30;649.43;;;;;;;;;;5020752;28;20206;-65
2020/12/17 23:22:22;;;;;;;768.77;710.87;;;;;;;;;;5020436;28;20222;-64
2020/12/17 23:24:49;;;;;;;719.43;666.33;;;;;;;;;;5021174;28;20345;-66
2020/12/17 23:27:15;;;;;;;777.37;715.17;;;;;;;;;;5019013;28;20182;-64
2020/12/17 23:29:42;;;;;;;779.47;719.73;;;;;;;;;;5019543;28;20190;-64
2020/12/17 23:32:09;;;;;;;762.13;703.83;;;;;;;;;;5020023;28;20183;-66
2020/12/17 23:34:35;;;;;;;741.33;690.60;;;;;;;;;;5017179;28;20189;-65
2020/12/17 23:37:02;;;;;;;668.00;620.23;;;;;;;;;;5019315;28;20187;-64
2020/12/17 23:39:29;;;;;;;669.97;620.67;;;;;;;;;;5019709;28;20285;-66
2020/12/17 23:41:55;;;;;;;673.10;630.37;;;;;;;;;;5019842;28;20837;-64
2020/12/17 23:44:22;;;;;;;720.43;671.67;;;;;;;;;;5020898;28;20192;-64
2020/12/17 23:46:48;;;;;;;723.17;673.13;;;;;;;;;;5020189;28;20247;-66
2020/12/17 23:49:15;;;;;;;710.93;662.07;;;;;;;;;;5020101;28;20191;-64
2020/12/17 23:51:42;;;;;;;774.83;716.77;;;;;;;;;;5021304;28;20200;-64
2020/12/17 23:54:08;;;;;;;816.73;752.63;;;;;;;;;;5020505;28;20198;-66
2020/12/17 23:56:35;;;;;;;727.93;674.83;;;;;;;;;;5020938;28;20614;-66
2020/12/17 23:59:02;;;;;;;748.50;692.63;;;;;;;;;;5021164;28;20217;-64
